sensor_id;sensor_type;location;lat;lon;timestamp;pressure;altitude;pressure_sealevel;temperature;humidity
48874;BME280;66155;46.204;5.220;2024-02-21T00:03:58;99798.16;;;8.11;59.88
48874;BME280;66155;46.204;5.220;2024-02-21T00:08:58;99799.31;;;8.14;60.23
48874;BME280;66155;46.204;5.220;2024-02-21T00:13:58;99801.34;;;8.06;60.25
48874;BME280;66155;46.204;5.220;2024-02-21T00:18:59;99806.88;;;8.03;60.69
48874;BME280;66155;46.204;5.220;2024-02-21T00:23:59;99784.53;;;7.90;60.57
48874;BME280;66155;46.204;5.220;2024-02-21T00:29:00;99779.44;;;7.85;60.96
48874;BME280;66155;46.204;5.220;2024-02-21T00:34:00;99782.28;;;7.74;60.84
48874;BME280;66155;46.204;5.220;2024-02-21T00:39:01;99774.78;;;7.75;61.04
48874;BME280;66155;46.204;5.220;2024-02-21T00:44:01;99768.88;;;7.73;60.96
48874;BME280;66155;46.204;5.220;2024-02-21T00:49:02;99755.88;;;7.73;60.97
48874;BME280;66155;46.204;5.220;2024-02-21T00:54:02;99745.59;;;7.77;60.67
48874;BME280;66155;46.204;5.220;2024-02-21T00:59:02;99726.75;;;7.69;60.80
48874;BME280;66155;46.204;5.220;2024-02-21T01:04:03;99732.72;;;7.64;61.15
48874;BME280;66155;46.204;5.220;2024-02-21T01:09:04;99727.56;;;7.66;61.14
48874;BME280;66155;46.204;5.220;2024-02-21T01:14:04;99715.00;;;7.61;61.41
48874;BME280;66155;46.204;5.220;2024-02-21T01:19:04;99700.88;;;7.56;61.29
48874;BME280;66155;46.204;5.220;2024-02-21T01:24:05;99704.84;;;7.51;61.53
48874;BME280;66155;46.204;5.220;2024-02-21T01:29:05;99708.81;;;7.46;61.74
48874;BME280;66155;46.204;5.220;2024-02-21T01:34:06;99706.09;;;7.43;61.48
48874;BME280;66155;46.204;5.220;2024-02-21T01:39:06;99698.66;;;7.40;61.51
48874;BME280;66155;46.204;5.220;2024-02-21T01:44:07;99695.47;;;7.41;61.25
48874;BME280;66155;46.204;5.220;2024-02-21T01:49:07;99687.28;;;7.31;61.76
48874;BME280;66155;46.204;5.220;2024-02-21T01:54:08;99679.09;;;7.17;61.76
48874;BME280;66155;46.204;5.220;2024-02-21T01:59:10;99672.09;;;7.05;62.48
48874;BME280;66155;46.204;5.220;2024-02-21T02:04:12;99656.03;;;6.93;62.36
48874;BME280;66155;46.204;5.220;2024-02-21T02:09:12;99656.50;;;6.77;63.05
48874;BME280;66155;46.204;5.220;2024-02-21T02:14:13;99658.13;;;6.68;62.56
48874;BME280;66155;46.204;5.220;2024-02-21T02:19:13;99649.84;;;6.68;62.52
48874;BME280;66155;46.204;5.220;2024-02-21T02:24:16;99651.78;;;6.78;62.48
48874;BME280;66155;46.204;5.220;2024-02-21T02:29:16;99640.75;;;6.81;62.45
48874;BME280;66155;46.204;5.220;2024-02-21T02:34:17;99630.50;;;6.85;62.39
48874;BME280;66155;46.204;5.220;2024-02-21T02:39:18;99618.34;;;6.83;62.62
48874;BME280;66155;46.204;5.220;2024-02-21T02:44:18;99599.47;;;6.78;62.65
48874;BME280;66155;46.204;5.220;2024-02-21T02:49:18;99576.66;;;6.77;62.60
48874;BME280;66155;46.204;5.220;2024-02-21T02:54:19;99571.94;;;6.78;62.66
48874;BME280;66155;46.204;5.220;2024-02-21T02:59:19;99569.59;;;6.73;62.73
48874;BME280;66155;46.204;5.220;2024-02-21T03:04:20;99554.34;;;6.61;63.24
48874;BME280;66155;46.204;5.220;2024-02-21T03:09:20;99548.16;;;6.46;63.35
48874;BME280;66155;46.204;5.220;2024-02-21T03:14:21;99533.28;;;6.33;63.77
48874;BME280;66155;46.204;5.220;2024-02-21T03:19:21;99546.28;;;6.26;64.43
48874;BME280;66155;46.204;5.220;2024-02-21T03:24:22;99541.59;;;6.19;64.23
48874;BME280;66155;46.204;5.220;2024-02-21T03:29:23;99545.53;;;6.22;64.16
48874;BME280;66155;46.204;5.220;2024-02-21T03:34:23;99552.22;;;6.17;64.17
48874;BME280;66155;46.204;5.220;2024-02-21T03:39:24;99547.91;;;6.13;64.14
48874;BME280;66155;46.204;5.220;2024-02-21T03:44:24;99546.34;;;6.12;63.79
48874;BME280;66155;46.204;5.220;2024-02-21T03:49:25;99558.13;;;6.12;64.38
48874;BME280;66155;46.204;5.220;2024-02-21T03:54:25;99556.59;;;6.00;64.74
48874;BME280;66155;46.204;5.220;2024-02-21T03:59:26;99556.25;;;5.84;65.05
48874;BME280;66155;46.204;5.220;2024-02-21T04:04:26;99541.34;;;5.68;65.32
48874;BME280;66155;46.204;5.220;2024-02-21T04:09:27;99535.88;;;5.60;65.60
48874;BME280;66155;46.204;5.220;2024-02-21T04:14:27;99543.38;;;5.49;66.59
48874;BME280;66155;46.204;5.220;2024-02-21T04:19:28;99534.34;;;5.49;64.90
48874;BME280;66155;46.204;5.220;2024-02-21T04:24:28;99550.00;;;5.59;64.78
48874;BME280;66155;46.204;5.220;2024-02-21T04:29:28;99534.72;;;5.51;64.84
48874;BME280;66155;46.204;5.220;2024-02-21T04:34:29;99528.06;;;5.48;65.27
48874;BME280;66155;46.204;5.220;2024-02-21T04:39:30;99535.50;;;5.55;65.16
48874;BME280;66155;46.204;5.220;2024-02-21T04:44:30;99531.59;;;5.52;65.09
48874;BME280;66155;46.204;5.220;2024-02-21T04:49:31;99531.19;;;5.50;65.21
48874;BME280;66155;46.204;5.220;2024-02-21T04:54:31;99525.69;;;5.47;64.91
48874;BME280;66155;46.204;5.220;2024-02-21T04:59:32;99521.78;;;5.48;65.37
48874;BME280;66155;46.204;5.220;2024-02-21T05:04:32;99511.19;;;5.53;66.50
48874;BME280;66155;46.204;5.220;2024-02-21T05:09:33;99506.84;;;5.59;65.43
48874;BME280;66155;46.204;5.220;2024-02-21T05:14:33;99509.56;;;5.70;65.16
48874;BME280;66155;46.204;5.220;2024-02-21T05:19:34;99502.09;;;5.74;65.96
48874;BME280;66155;46.204;5.220;2024-02-21T05:24:34;99511.09;;;5.82;65.47
48874;BME280;66155;46.204;5.220;2024-02-21T05:29:35;99510.69;;;5.90;65.73
48874;BME280;66155;46.204;5.220;2024-02-21T05:34:35;99511.06;;;5.96;65.28
48874;BME280;66155;46.204;5.220;2024-02-21T05:39:36;99511.84;;;5.96;65.76
48874;BME280;66155;46.204;5.220;2024-02-21T05:44:36;99495.75;;;5.91;66.58
48874;BME280;66155;46.204;5.220;2024-02-21T05:49:37;99493.44;;;5.86;66.99
48874;BME280;66155;46.204;5.220;2024-02-21T05:54:38;99480.06;;;5.88;66.24
48874;BME280;66155;46.204;5.220;2024-02-21T05:59:40;99492.19;;;6.01;65.84
48874;BME280;66155;46.204;5.220;2024-02-21T06:04:42;99495.31;;;6.00;66.15
48874;BME280;66155;46.204;5.220;2024-02-21T06:09:43;99493.41;;;5.93;67.43
48874;BME280;66155;46.204;5.220;2024-02-21T06:14:44;99476.50;;;5.91;66.50
48874;BME280;66155;46.204;5.220;2024-02-21T06:19:45;99480.06;;;5.88;66.73
48874;BME280;66155;46.204;5.220;2024-02-21T06:24:46;99454.53;;;5.84;66.82
48874;BME280;66155;46.204;5.220;2024-02-21T06:29:46;99449.03;;;5.81;67.20
48874;BME280;66155;46.204;5.220;2024-02-21T06:34:47;99457.34;;;5.74;68.42
48874;BME280;66155;46.204;5.220;2024-02-21T06:39:47;99446.72;;;5.72;67.88
48874;BME280;66155;46.204;5.220;2024-02-21T06:44:48;99443.59;;;5.67;68.53
48874;BME280;66155;46.204;5.220;2024-02-21T06:49:49;99444.81;;;5.62;68.71
48874;BME280;66155;46.204;5.220;2024-02-21T06:54:50;99456.59;;;5.55;70.46
48874;BME280;66155;46.204;5.220;2024-02-21T06:59:51;99448.41;;;5.45;71.81
48874;BME280;66155;46.204;5.220;2024-02-21T07:04:52;99441.31;;;5.47;71.36
48874;BME280;66155;46.204;5.220;2024-02-21T07:09:52;99457.78;;;5.51;71.26
48874;BME280;66155;46.204;5.220;2024-02-21T07:14:54;99449.53;;;5.54;71.38
48874;BME280;66155;46.204;5.220;2024-02-21T07:19:55;99457.00;;;5.57;71.66
48874;BME280;66155;46.204;5.220;2024-02-21T07:24:57;99440.50;;;5.57;72.38
48874;BME280;66155;46.204;5.220;2024-02-21T07:29:57;99443.22;;;5.64;71.00
48874;BME280;66155;46.204;5.220;2024-02-21T07:34:57;99439.66;;;5.78;70.06
48874;BME280;66155;46.204;5.220;2024-02-21T07:39:58;99432.53;;;5.88;70.16
48874;BME280;66155;46.204;5.220;2024-02-21T07:44:58;99438.00;;;5.95;70.21
48874;BME280;66155;46.204;5.220;2024-02-21T07:49:59;99444.28;;;5.95;70.53
48874;BME280;66155;46.204;5.220;2024-02-21T07:54:59;99447.34;;;6.08;69.88
48874;BME280;66155;46.204;5.220;2024-02-21T07:59:59;99440.59;;;6.20;69.30
48874;BME280;66155;46.204;5.220;2024-02-21T08:05:01;99440.53;;;6.34;69.01
48874;BME280;66155;46.204;5.220;2024-02-21T08:10:02;99428.69;;;6.40;69.34
48874;BME280;66155;46.204;5.220;2024-02-21T08:15:03;99421.50;;;6.53;69.03
48874;BME280;66155;46.204;5.220;2024-02-21T08:20:04;99413.53;;;6.66;69.04
48874;BME280;66155;46.204;5.220;2024-02-21T08:25:05;99411.50;;;6.74;69.21
48874;BME280;66155;46.204;5.220;2024-02-21T08:30:06;99409.94;;;6.73;69.09
48874;BME280;66155;46.204;5.220;2024-02-21T08:35:08;99394.84;;;6.88;69.07
48874;BME280;66155;46.204;5.220;2024-02-21T08:40:09;99377.91;;;6.89;69.93
48874;BME280;66155;46.204;5.220;2024-02-21T08:45:10;99384.47;;;7.02;69.15
48874;BME280;66155;46.204;5.220;2024-02-21T08:50:11;99384.75;;;7.15;69.38
48874;BME280;66155;46.204;5.220;2024-02-21T08:55:11;99383.00;;;7.28;68.92
48874;BME280;66155;46.204;5.220;2024-02-21T09:00:12;99377.97;;;7.54;68.46
48874;BME280;66155;46.204;5.220;2024-02-21T09:05:13;99362.00;;;7.72;68.21
48874;BME280;66155;46.204;5.220;2024-02-21T09:10:13;99344.09;;;7.83;68.38
48874;BME280;66155;46.204;5.220;2024-02-21T09:15:14;99320.28;;;7.96;68.20
48874;BME280;66155;46.204;5.220;2024-02-21T09:20:14;99314.41;;;8.18;68.04
48874;BME280;66155;46.204;5.220;2024-02-21T09:25:16;99312.22;;;8.32;67.16
48874;BME280;66155;46.204;5.220;2024-02-21T09:30:17;99319.78;;;8.52;66.90
48874;BME280;66155;46.204;5.220;2024-02-21T09:35:19;99303.91;;;8.79;66.35
48874;BME280;66155;46.204;5.220;2024-02-21T09:40:20;99307.81;;;9.01;66.26
48874;BME280;66155;46.204;5.220;2024-02-21T09:45:21;99322.97;;;9.13;66.09
48874;BME280;66155;46.204;5.220;2024-02-21T09:50:23;99311.38;;;9.21;65.65
48874;BME280;66155;46.204;5.220;2024-02-21T09:55:26;99321.34;;;9.15;65.45
48874;BME280;66155;46.204;5.220;2024-02-21T10:00:27;99306.47;;;9.09;64.74
48874;BME280;66155;46.204;5.220;2024-02-21T10:05:28;99301.84;;;9.22;64.66
48874;BME280;66155;46.204;5.220;2024-02-21T10:10:28;99293.22;;;9.20;63.97
48874;BME280;66155;46.204;5.220;2024-02-21T10:15:30;99294.34;;;9.23;62.92
48874;BME280;66155;46.204;5.220;2024-02-21T10:20:30;99286.66;;;9.30;62.92
48874;BME280;66155;46.204;5.220;2024-02-21T10:25:30;99268.31;;;9.40;61.96
48874;BME280;66155;46.204;5.220;2024-02-21T10:30:31;99263.50;;;9.60;62.68
48874;BME280;66155;46.204;5.220;2024-02-21T10:35:32;99262.16;;;9.84;61.29
48874;BME280;66155;46.204;5.220;2024-02-21T10:40:33;99264.06;;;10.04;61.98
48874;BME280;66155;46.204;5.220;2024-02-21T10:45:35;99269.19;;;10.21;61.01
48874;BME280;66155;46.204;5.220;2024-02-21T10:56:00;99260.06;;;10.53;60.87
48874;BME280;66155;46.204;5.220;2024-02-21T11:01:05;99251.13;;;10.62;60.86
48874;BME280;66155;46.204;5.220;2024-02-21T11:06:06;99241.59;;;10.63;58.96
48874;BME280;66155;46.204;5.220;2024-02-21T11:11:12;99233.63;;;10.65;59.61
48874;BME280;66155;46.204;5.220;2024-02-21T11:16:23;99223.47;;;10.74;59.52
48874;BME280;66155;46.204;5.220;2024-02-21T11:21:33;99212.53;;;10.84;58.06
48874;BME280;66155;46.204;5.220;2024-02-21T11:26:37;99200.13;;;11.01;56.24
48874;BME280;66155;46.204;5.220;2024-02-21T11:31:40;99191.84;;;11.13;57.69
48874;BME280;66155;46.204;5.220;2024-02-21T11:36:49;99157.25;;;11.31;55.12
48874;BME280;66155;46.204;5.220;2024-02-21T11:47:04;99146.22;;;11.65;55.65
48874;BME280;66155;46.204;5.220;2024-02-21T11:52:05;99130.59;;;11.84;55.42
48874;BME280;66155;46.204;5.220;2024-02-21T11:57:05;99115.78;;;11.99;52.72
48874;BME280;66155;46.204;5.220;2024-02-21T12:02:06;99123.03;;;12.19;53.73
48874;BME280;66155;46.204;5.220;2024-02-21T12:07:06;99122.06;;;12.34;52.93
48874;BME280;66155;46.204;5.220;2024-02-21T12:12:08;99117.56;;;12.49;53.80
48874;BME280;66155;46.204;5.220;2024-02-21T12:17:08;99112.94;;;12.55;53.84
48874;BME280;66155;46.204;5.220;2024-02-21T12:22:18;99098.84;;;12.50;50.80
48874;BME280;66155;46.204;5.220;2024-02-21T12:27:19;99087.31;;;12.51;52.64
48874;BME280;66155;46.204;5.220;2024-02-21T12:32:20;99056.44;;;12.49;53.28
48874;BME280;66155;46.204;5.220;2024-02-21T12:37:22;99054.19;;;12.66;53.02
48874;BME280;66155;46.204;5.220;2024-02-21T12:42:25;99035.00;;;12.90;52.86
48874;BME280;66155;46.204;5.220;2024-02-21T12:47:26;99026.94;;;13.14;52.49
48874;BME280;66155;46.204;5.220;2024-02-21T12:52:26;99020.94;;;13.24;52.17
48874;BME280;66155;46.204;5.220;2024-02-21T12:57:27;99002.25;;;13.43;51.24
48874;BME280;66155;46.204;5.220;2024-02-21T13:02:27;98984.34;;;13.53;50.20
48874;BME280;66155;46.204;5.220;2024-02-21T13:07:29;98965.94;;;13.65;48.81
48874;BME280;66155;46.204;5.220;2024-02-21T13:12:29;98941.78;;;13.80;49.67
48874;BME280;66155;46.204;5.220;2024-02-21T13:17:30;98961.25;;;14.07;50.80
48874;BME280;66155;46.204;5.220;2024-02-21T13:22:31;98940.47;;;14.26;49.79
48874;BME280;66155;46.204;5.220;2024-02-21T13:27:32;98909.16;;;14.40;48.44
48874;BME280;66155;46.204;5.220;2024-02-21T13:32:32;98913.81;;;14.43;47.85
48874;BME280;66155;46.204;5.220;2024-02-21T13:37:32;98899.53;;;14.51;45.99
48874;BME280;66155;46.204;5.220;2024-02-21T13:42:33;98887.00;;;14.46;45.89
48874;BME280;66155;46.204;5.220;2024-02-21T13:47:33;98862.16;;;14.57;46.94
48874;BME280;66155;46.204;5.220;2024-02-21T13:52:34;98846.94;;;14.43;45.16
48874;BME280;66155;46.204;5.220;2024-02-21T13:57:36;98842.09;;;14.44;45.63
48874;BME280;66155;46.204;5.220;2024-02-21T14:02:37;98828.47;;;14.46;42.66
48874;BME280;66155;46.204;5.220;2024-02-21T14:07:38;98816.31;;;14.58;45.26
48874;BME280;66155;46.204;5.220;2024-02-21T14:12:39;98816.00;;;14.56;43.86
48874;BME280;66155;46.204;5.220;2024-02-21T14:17:40;98801.47;;;14.52;42.92
48874;BME280;66155;46.204;5.220;2024-02-21T14:22:40;98786.97;;;14.48;43.34
48874;BME280;66155;46.204;5.220;2024-02-21T14:27:41;98784.00;;;14.52;43.84
48874;BME280;66155;46.204;5.220;2024-02-21T14:32:43;98773.03;;;14.48;42.66
48874;BME280;66155;46.204;5.220;2024-02-21T14:37:45;98759.41;;;14.50;42.42
48874;BME280;66155;46.204;5.220;2024-02-21T14:42:46;98766.84;;;14.44;42.73
48874;BME280;66155;46.204;5.220;2024-02-21T14:47:46;98753.88;;;14.41;40.76
48874;BME280;66155;46.204;5.220;2024-02-21T14:52:47;98743.69;;;14.38;41.66
48874;BME280;66155;46.204;5.220;2024-02-21T14:57:47;98743.03;;;14.43;42.38
48874;BME280;66155;46.204;5.220;2024-02-21T15:02:47;98743.03;;;14.43;41.55
48874;BME280;66155;46.204;5.220;2024-02-21T15:07:48;98754.47;;;14.45;41.18
48874;BME280;66155;46.204;5.220;2024-02-21T15:12:48;98755.13;;;14.40;40.92
48874;BME280;66155;46.204;5.220;2024-02-21T15:17:48;98750.03;;;14.38;41.35
48874;BME280;66155;46.204;5.220;2024-02-21T15:22:50;98734.38;;;14.41;42.02
48874;BME280;66155;46.204;5.220;2024-02-21T15:27:50;98711.66;;;14.33;40.08
48874;BME280;66155;46.204;5.220;2024-02-21T15:32:51;98700.50;;;14.33;41.49
48874;BME280;66155;46.204;5.220;2024-02-21T15:37:52;98705.28;;;14.33;41.40
48874;BME280;66155;46.204;5.220;2024-02-21T15:42:52;98699.44;;;14.31;42.08
48874;BME280;66155;46.204;5.220;2024-02-21T15:47:54;98712.09;;;14.32;41.78
48874;BME280;66155;46.204;5.220;2024-02-21T15:52:54;98696.16;;;14.32;42.12
48874;BME280;66155;46.204;5.220;2024-02-21T15:57:55;98699.91;;;14.29;40.60
48874;BME280;66155;46.204;5.220;2024-02-21T16:02:55;98695.56;;;14.28;41.33
48874;BME280;66155;46.204;5.220;2024-02-21T16:07:57;98693.75;;;14.25;42.00
48874;BME280;66155;46.204;5.220;2024-02-21T16:12:57;98677.50;;;14.24;41.37
48874;BME280;66155;46.204;5.220;2024-02-21T16:17:57;98665.59;;;14.23;41.71
48874;BME280;66155;46.204;5.220;2024-02-21T16:22:59;98646.84;;;14.24;41.18
48874;BME280;66155;46.204;5.220;2024-02-21T16:28:03;98658.50;;;14.22;41.41
48874;BME280;66155;46.204;5.220;2024-02-21T16:33:05;98650.31;;;14.19;40.45
48874;BME280;66155;46.204;5.220;2024-02-21T16:38:06;98656.16;;;14.21;40.41
48874;BME280;66155;46.204;5.220;2024-02-21T16:43:07;98652.91;;;14.22;41.22
48874;BME280;66155;46.204;5.220;2024-02-21T16:48:07;98643.47;;;14.20;39.82
48874;BME280;66155;46.204;5.220;2024-02-21T16:53:08;98637.63;;;14.18;39.89
48874;BME280;66155;46.204;5.220;2024-02-21T16:58:08;98650.78;;;14.17;40.56
48874;BME280;66155;46.204;5.220;2024-02-21T17:03:09;98631.47;;;14.14;39.61
48874;BME280;66155;46.204;5.220;2024-02-21T17:08:09;98646.34;;;14.11;39.40
48874;BME280;66155;46.204;5.220;2024-02-21T17:13:09;98648.53;;;14.07;40.03
48874;BME280;66155;46.204;5.220;2024-02-21T17:18:10;98635.28;;;14.01;40.15
48874;BME280;66155;46.204;5.220;2024-02-21T17:23:11;98640.53;;;13.99;40.64
48874;BME280;66155;46.204;5.220;2024-02-21T17:28:14;98645.81;;;13.97;40.57
48874;BME280;66155;46.204;5.220;2024-02-21T17:33:15;98634.69;;;13.97;40.62
48874;BME280;66155;46.204;5.220;2024-02-21T17:38:16;98643.41;;;13.90;39.74
48874;BME280;66155;46.204;5.220;2024-02-21T17:43:19;98644.28;;;13.96;40.65
48874;BME280;66155;46.204;5.220;2024-02-21T17:48:21;98639.06;;;13.89;40.13
48874;BME280;66155;46.204;5.220;2024-02-21T17:53:21;98634.56;;;13.92;39.62
48874;BME280;66155;46.204;5.220;2024-02-21T17:58:22;98643.69;;;13.92;40.42
48874;BME280;66155;46.204;5.220;2024-02-21T18:03:22;98643.84;;;13.89;40.48
48874;BME280;66155;46.204;5.220;2024-02-21T18:08:23;98627.34;;;13.85;39.94
48874;BME280;66155;46.204;5.220;2024-02-21T18:13:23;98627.03;;;13.83;40.73
48874;BME280;66155;46.204;5.220;2024-02-21T18:18:24;98634.13;;;13.84;40.99
48874;BME280;66155;46.204;5.220;2024-02-21T18:23:24;98626.75;;;13.81;41.15
48874;BME280;66155;46.204;5.220;2024-02-21T18:28:25;98636.34;;;13.80;40.93
48874;BME280;66155;46.204;5.220;2024-02-21T18:33:26;98636.34;;;13.80;40.93
48874;BME280;66155;46.204;5.220;2024-02-21T18:38:26;98623.19;;;13.81;40.62
48874;BME280;66155;46.204;5.220;2024-02-21T18:43:26;98618.25;;;13.76;40.72
48874;BME280;66155;46.204;5.220;2024-02-21T18:48:27;98633.72;;;13.77;41.02
48874;BME280;66155;46.204;5.220;2024-02-21T18:53:27;98606.34;;;13.75;40.54
48874;BME280;66155;46.204;5.220;2024-02-21T18:58:28;98608.38;;;13.75;41.12
48874;BME280;66155;46.204;5.220;2024-02-21T19:03:28;98620.00;;;13.73;40.62
48874;BME280;66155;46.204;5.220;2024-02-21T19:08:29;98608.84;;;13.73;40.88
48874;BME280;66155;46.204;5.220;2024-02-21T19:13:34;98613.19;;;13.74;40.73
48874;BME280;66155;46.204;5.220;2024-02-21T19:18:55;98610.09;;;13.72;41.27
48874;BME280;66155;46.204;5.220;2024-02-21T19:23:56;98607.63;;;13.74;41.03
48874;BME280;66155;46.204;5.220;2024-02-21T19:28:56;98610.88;;;13.73;41.11
48874;BME280;66155;46.204;5.220;2024-02-21T19:33:57;98610.09;;;13.72;41.66
48874;BME280;66155;46.204;5.220;2024-02-21T19:38:57;98611.03;;;13.69;41.69
48874;BME280;66155;46.204;5.220;2024-02-21T19:43:57;98602.22;;;13.71;41.80
48874;BME280;66155;46.204;5.220;2024-02-21T19:48:58;98604.41;;;13.67;41.67
48874;BME280;66155;46.204;5.220;2024-02-21T19:53:58;98614.00;;;13.66;42.00
48874;BME280;66155;46.204;5.220;2024-02-21T19:58:58;98613.22;;;13.65;41.68
48874;BME280;66155;46.204;5.220;2024-02-21T20:04:01;98634.72;;;13.65;41.99
48874;BME280;66155;46.204;5.220;2024-02-21T20:09:04;98619.75;;;13.62;42.00
48874;BME280;66155;46.204;5.220;2024-02-21T20:14:08;98634.91;;;13.61;42.47
48874;BME280;66155;46.204;5.220;2024-02-21T20:19:08;98625.66;;;13.55;42.91
48874;BME280;66155;46.204;5.220;2024-02-21T20:24:13;98623.03;;;13.51;42.97
48874;BME280;66155;46.204;5.220;2024-02-21T20:29:13;98623.38;;;13.44;43.50
48874;BME280;66155;46.204;5.220;2024-02-21T20:34:16;98618.28;;;13.43;43.91
48874;BME280;66155;46.204;5.220;2024-02-21T20:39:16;98619.41;;;13.36;43.83
48874;BME280;66155;46.204;5.220;2024-02-21T20:44:18;98627.94;;;13.33;44.15
48874;BME280;66155;46.204;5.220;2024-02-21T20:49:19;98628.56;;;13.28;43.97
48874;BME280;66155;46.204;5.220;2024-02-21T20:54:19;98642.47;;;13.28;44.05
48874;BME280;66155;46.204;5.220;2024-02-21T20:59:20;98640.91;;;13.27;44.21
48874;BME280;66155;46.204;5.220;2024-02-21T21:04:23;98644.97;;;13.26;43.89
48874;BME280;66155;46.204;5.220;2024-02-21T21:09:25;98645.44;;;13.24;44.13
48874;BME280;66155;46.204;5.220;2024-02-21T21:14:25;98651.16;;;13.21;44.14
48874;BME280;66155;46.204;5.220;2024-02-21T21:19:28;98652.56;;;13.16;44.55
48874;BME280;66155;46.204;5.220;2024-02-21T21:24:29;98642.84;;;13.12;45.10
48874;BME280;66155;46.204;5.220;2024-02-21T21:29:30;98650.44;;;13.02;45.67
48874;BME280;66155;46.204;5.220;2024-02-21T21:34:34;98642.88;;;12.93;46.36
48874;BME280;66155;46.204;5.220;2024-02-21T21:39:35;98641.66;;;12.85;46.96
48874;BME280;66155;46.204;5.220;2024-02-21T21:44:35;98657.41;;;12.79;48.09
48874;BME280;66155;46.204;5.220;2024-02-21T21:49:36;98640.59;;;12.74;47.62
48874;BME280;66155;46.204;5.220;2024-02-21T21:54:36;98646.47;;;12.67;48.33
48874;BME280;66155;46.204;5.220;2024-02-21T21:59:36;98648.78;;;12.59;48.97
48874;BME280;66155;46.204;5.220;2024-02-21T22:04:37;98660.22;;;12.52;49.50
48874;BME280;66155;46.204;5.220;2024-02-21T22:09:38;98652.50;;;12.47;49.80
48874;BME280;66155;46.204;5.220;2024-02-21T22:14:38;98647.13;;;12.43;49.27
48874;BME280;66155;46.204;5.220;2024-02-21T22:19:38;98639.88;;;12.37;50.60
48874;BME280;66155;46.204;5.220;2024-02-21T22:24:39;98636.75;;;12.26;50.59
48874;BME280;66155;46.204;5.220;2024-02-21T22:29:44;98630.75;;;12.18;51.70
48874;BME280;66155;46.204;5.220;2024-02-21T22:34:44;98626.28;;;12.11;51.89
48874;BME280;66155;46.204;5.220;2024-02-21T22:39:44;98609.31;;;12.00;52.17
48874;BME280;66155;46.204;5.220;2024-02-21T22:44:46;98617.63;;;11.91;53.34
48874;BME280;66155;46.204;5.220;2024-02-21T22:49:46;98615.44;;;11.77;54.85
48874;BME280;66155;46.204;5.220;2024-02-21T22:54:47;98607.06;;;11.59;56.67
48874;BME280;66155;46.204;5.220;2024-02-21T22:59:47;98603.66;;;11.46;57.50
48874;BME280;66155;46.204;5.220;2024-02-21T23:04:47;98615.31;;;11.32;58.53
48874;BME280;66155;46.204;5.220;2024-02-21T23:09:48;98600.34;;;11.20;60.27
48874;BME280;66155;46.204;5.220;2024-02-21T23:14:48;98583.47;;;11.05;61.39
48874;BME280;66155;46.204;5.220;2024-02-21T23:19:49;98568.84;;;10.96;61.78
48874;BME280;66155;46.204;5.220;2024-02-21T23:24:49;98551.97;;;10.81;62.56
48874;BME280;66155;46.204;5.220;2024-02-21T23:29:49;98529.69;;;10.54;68.59
48874;BME280;66155;46.204;5.220;2024-02-21T23:34:50;98504.72;;;10.45;66.63
48874;BME280;66155;46.204;5.220;2024-02-21T23:39:50;98509.31;;;10.39;66.77
48874;BME280;66155;46.204;5.220;2024-02-21T23:44:51;98497.84;;;10.27;68.67
48874;BME280;66155;46.204;5.220;2024-02-21T23:49:51;98481.09;;;10.22;71.34
48874;BME280;66155;46.204;5.220;2024-02-21T23:54:51;98494.59;;;10.20;69.81
48874;BME280;66155;46.204;5.220;2024-02-21T23:59:53;98481.41;;;10.02;71.69
